Time;durP1;ratioP1;P1;durP2;ratioP2;P2;SDS_P1;SDS_P2;PMS_P1;PMS_P2;Temp;Humidity;BMP_temperature;BMP_pressure;BME280_temperature;BME280_humidity;BME280_pressure;Samples;Min_cycle;Max_cycle;Signal;HPM_P1;HPM_P2
2023/04/25 00:01:57;;;;;;;3.13;1.70;;;12.20;99.90;;;;;;5115620;28;20227;-57
2023/04/25 00:04:25;;;;;;;2.07;1.50;;;12.20;99.90;;;;;;5115794;28;20246;-57
2023/04/25 00:06:52;;;;;;;1.87;1.63;;;12.10;99.90;;;;;;5116260;28;20228;-57
2023/04/25 00:09:21;;;;;;;2.47;1.67;;;12.20;99.90;;;;;;5116584;28;20195;-57
2023/04/25 00:11:48;;;;;;;3.03;1.83;;;12.20;99.90;;;;;;5115791;28;20583;-58
2023/04/25 00:14:16;;;;;;;1.77;1.50;;;12.20;99.90;;;;;;5115049;28;20210;-58
2023/04/25 00:16:43;;;;;;;3.40;1.90;;;12.20;99.90;;;;;;5115473;28;20230;-58
2023/04/25 00:19:11;;;;;;;2.20;1.63;;;12.20;99.90;;;;;;5115889;28;20199;-57
2023/04/25 00:21:40;;;;;;;3.17;1.90;;;12.20;99.90;;;;;;5115605;28;20203;-57
2023/04/25 00:24:07;;;;;;;2.30;1.90;;;12.20;99.90;;;;;;5115566;28;20295;-57
2023/04/25 00:26:36;;;;;;;2.93;2.10;;;12.10;99.90;;;;;;5115217;28;20224;-58
2023/04/25 00:29:03;;;;;;;2.93;2.00;;;12.10;99.90;;;;;;5115105;28;20662;-57
2023/04/25 00:31:30;;;;;;;2.40;1.90;;;12.10;99.90;;;;;;5114907;28;20655;-57
2023/04/25 00:33:57;;;;;;;2.83;1.87;;;12.00;99.90;;;;;;5114583;28;20227;-56
2023/04/25 00:36:24;;;;;;;4.10;2.30;;;12.00;99.90;;;;;;5114686;28;20259;-57
2023/04/25 00:38:51;;;;;;;2.10;1.90;;;12.00;99.90;;;;;;5115108;28;20659;-57
2023/04/25 00:41:19;;;;;;;2.53;2.00;;;12.00;99.90;;;;;;5115078;28;20657;-57
2023/04/25 00:43:49;;;;;;;2.30;1.53;;;12.00;99.90;;;;;;5114570;28;20659;-57
2023/04/25 00:46:15;;;;;;;2.20;1.97;;;11.90;99.90;;;;;;5114526;28;20235;-57
2023/04/25 00:48:42;;;;;;;2.20;1.67;;;11.90;99.90;;;;;;5114960;28;20214;-57
2023/04/25 00:51:11;;;;;;;2.03;1.30;;;11.80;99.90;;;;;;5114965;28;20201;-57
2023/04/25 00:53:39;;;;;;;4.23;1.70;;;11.80;99.90;;;;;;5114776;28;20203;-57
2023/04/25 00:56:06;;;;;;;3.07;1.40;;;11.70;99.90;;;;;;5114344;28;20242;-58
2023/04/25 00:58:33;;;;;;;3.13;1.53;;;11.70;99.90;;;;;;5114611;28;20207;-58
2023/04/25 01:01:02;;;;;;;1.90;1.53;;;11.60;99.90;;;;;;5114455;28;20214;-57
2023/04/25 01:03:29;;;;;;;1.50;1.30;;;11.60;99.90;;;;;;5114114;28;20211;-58
2023/04/25 01:05:56;;;;;;;1.97;1.50;;;11.60;99.90;;;;;;5114226;28;20219;-58
2023/04/25 01:08:25;;;;;;;2.33;1.60;;;11.60;99.90;;;;;;5114190;28;20253;-58
2023/04/25 01:10:52;;;;;;;2.23;1.60;;;11.50;99.90;;;;;;5114704;28;20211;-58
2023/04/25 01:13:19;;;;;;;2.00;1.40;;;11.50;99.90;;;;;;5114370;28;20207;-58
2023/04/25 01:15:46;;;;;;;3.27;1.60;;;11.50;99.90;;;;;;5114141;28;20223;-58
2023/04/25 01:18:14;;;;;;;2.30;1.43;;;11.50;99.90;;;;;;5113916;28;20240;-58
2023/04/25 01:20:43;;;;;;;2.50;1.70;;;11.50;99.90;;;;;;5114277;28;20203;-58
2023/04/25 01:23:11;;;;;;;1.80;1.53;;;11.40;99.90;;;;;;5113841;28;20671;-58
2023/04/25 01:25:39;;;;;;;2.60;1.27;;;11.50;99.90;;;;;;5113425;28;20714;-58
2023/04/25 01:28:07;;;;;;;1.50;1.27;;;11.50;99.90;;;;;;5113579;28;20199;-57
2023/04/25 01:30:35;;;;;;;1.73;1.50;;;11.50;99.90;;;;;;5113982;28;20231;-58
2023/04/25 01:33:04;;;;;;;1.53;1.20;;;11.50;99.90;;;;;;5113696;28;20609;-58
2023/04/25 01:35:31;;;;;;;1.67;1.40;;;11.40;99.90;;;;;;5114488;28;20232;-58
2023/04/25 01:37:59;;;;;;;1.67;1.40;;;11.50;99.90;;;;;;5114236;28;20576;-58
2023/04/25 01:40:28;;;;;;;5.07;1.50;;;11.40;99.90;;;;;;5114086;28;20303;-57
2023/04/25 01:42:55;;;;;;;1.37;1.17;;;11.40;99.90;;;;;;5113806;28;20207;-58
2023/04/25 01:45:22;;;;;;;2.67;1.40;;;11.40;99.90;;;;;;5113957;28;20291;-59
2023/04/25 01:47:50;;;;;;;2.33;1.43;;;11.50;99.90;;;;;;5113722;28;20242;-58
2023/04/25 01:50:18;;;;;;;2.53;1.43;;;11.40;99.90;;;;;;5113713;28;20212;-58
2023/04/25 01:52:45;;;;;;;2.63;1.50;;;11.50;99.90;;;;;;5113760;28;20219;-57
2023/04/25 01:55:12;;;;;;;1.17;1.10;;;11.50;99.90;;;;;;5113586;28;20336;-58
2023/04/25 01:57:40;;;;;;;1.43;1.33;;;11.40;99.90;;;;;;5114121;28;20230;-58
2023/04/25 02:00:08;;;;;;;2.07;1.47;;;11.30;99.90;;;;;;5114201;28;20282;-57
2023/04/25 02:02:35;;;;;;;2.57;1.57;;;11.30;99.90;;;;;;5113915;28;20199;-58
2023/04/25 02:05:02;;;;;;;1.60;1.50;;;11.20;99.90;;;;;;5113548;28;20204;-57
2023/04/25 02:07:29;;;;;;;4.93;1.57;;;11.10;99.90;;;;;;5113720;28;20290;-57
2023/04/25 02:09:56;;;;;;;2.23;1.50;;;11.00;99.90;;;;;;5114069;28;20477;-58
2023/04/25 02:12:23;;;;;;;2.87;1.50;;;11.00;99.90;;;;;;5113919;28;20207;-58
2023/04/25 02:14:51;;;;;;;1.93;1.60;;;10.90;99.90;;;;;;5113844;28;20246;-58
2023/04/25 02:17:18;;;;;;;2.00;1.53;;;10.80;99.90;;;;;;5113701;28;20310;-58
2023/04/25 02:19:45;;;;;;;1.80;1.40;;;10.70;99.90;;;;;;5114025;28;20746;-58
2023/04/25 02:22:12;;;;;;;3.00;1.80;;;10.70;99.90;;;;;;5113642;28;20626;-58
2023/04/25 02:24:39;;;;;;;2.37;1.80;;;10.60;99.90;;;;;;5114381;28;20290;-58
2023/04/25 02:27:07;;;;;;;3.47;1.60;;;10.60;99.90;;;;;;5113502;28;20229;-58
2023/04/25 02:29:34;;;;;;;2.10;1.60;;;10.60;99.90;;;;;;5114134;28;20556;-58
2023/04/25 02:32:03;;;;;;;2.20;1.80;;;10.50;99.90;;;;;;5113684;28;20233;-58
2023/04/25 02:34:29;;;;;;;3.13;1.80;;;10.60;99.90;;;;;;5113680;28;20302;-58
2023/04/25 02:36:56;;;;;;;2.20;1.60;;;10.70;99.90;;;;;;5113286;28;20645;-58
2023/04/25 02:39:24;;;;;;;2.50;1.50;;;10.80;99.90;;;;;;5121076;28;20708;-58
2023/04/25 02:41:51;;;;;;;2.17;1.57;;;10.90;99.90;;;;;;5120180;28;20208;-58
2023/04/25 02:44:18;;;;;;;2.33;1.83;;;10.90;99.90;;;;;;5120422;28;20248;-58
2023/04/25 02:46:45;;;;;;;1.90;1.57;;;11.00;99.90;;;;;;5120326;28;20229;-58
2023/04/25 02:49:13;;;;;;;1.83;1.73;;;11.00;99.90;;;;;;5120359;28;20217;-58
2023/04/25 02:51:40;;;;;;;1.60;1.50;;;11.10;99.90;;;;;;5120428;28;20211;-58
2023/04/25 02:54:07;;;;;;;2.07;1.60;;;11.10;99.90;;;;;;5120765;28;20585;-58
2023/04/25 02:56:34;;;;;;;1.97;1.67;;;11.10;99.90;;;;;;5120206;28;20733;-58
2023/04/25 02:59:01;;;;;;;2.60;1.77;;;11.10;99.90;;;;;;5120730;28;20277;-58
2023/04/25 03:01:27;;;;;;;1.93;1.73;;;11.10;99.90;;;;;;5120468;28;20203;-58
2023/04/25 03:03:54;;;;;;;2.67;1.77;;;11.10;99.90;;;;;;5120149;28;20223;-58
2023/04/25 03:06:22;;;;;;;2.80;2.00;;;11.10;99.90;;;;;;5120053;28;20219;-58
2023/04/25 03:08:49;;;;;;;3.57;1.60;;;11.10;99.90;;;;;;5120193;28;20200;-58
2023/04/25 03:11:16;;;;;;;3.93;2.07;;;11.20;99.90;;;;;;5120353;28;20204;-58
2023/04/25 03:13:43;;;;;;;4.43;1.80;;;11.20;99.90;;;;;;5120781;28;20203;-58
2023/04/25 03:16:10;;;;;;;2.90;1.90;;;11.20;99.90;;;;;;5120481;28;20318;-58
2023/04/25 03:18:36;;;;;;;2.93;1.80;;;11.20;99.90;;;;;;5120470;28;20228;-58
2023/04/25 03:21:04;;;;;;;2.23;1.80;;;11.20;99.90;;;;;;5120887;28;20214;-58
2023/04/25 03:23:32;;;;;;;2.20;1.90;;;11.20;99.90;;;;;;5120698;28;20209;-56
2023/04/25 03:25:59;;;;;;;5.10;1.87;;;11.20;99.90;;;;;;5121365;28;20584;-56
2023/04/25 03:28:26;;;;;;;2.10;1.77;;;11.20;99.90;;;;;;5122021;28;20272;-56
2023/04/25 03:30:53;;;;;;;3.90;2.10;;;11.20;99.90;;;;;;5121156;28;20257;-56
2023/04/25 03:33:20;;;;;;;2.83;1.90;;;11.20;99.90;;;;;;5122164;28;20211;-57
2023/04/25 03:35:47;;;;;;;2.00;1.63;;;11.10;99.90;;;;;;5121732;28;20657;-57
2023/04/25 03:38:14;;;;;;;4.40;2.10;;;11.00;99.90;;;;;;5121575;28;20223;-58
2023/04/25 03:40:42;;;;;;;4.40;1.70;;;11.00;99.90;;;;;;5121550;28;20207;-57
2023/04/25 03:43:09;;;;;;;3.20;1.90;;;11.10;99.90;;;;;;5120476;28;20246;-57
2023/04/25 03:45:36;;;;;;;2.13;1.93;;;11.10;99.90;;;;;;5122106;27;20243;-57
2023/04/25 03:48:04;;;;;;;3.00;1.83;;;11.10;99.90;;;;;;5123241;28;20203;-57
2023/04/25 03:50:30;;;;;;;2.77;1.80;;;11.20;99.90;;;;;;5119161;28;20207;-57
2023/04/25 03:52:57;;;;;;;3.13;1.80;;;11.20;99.90;;;;;;5118703;28;20290;-57
2023/04/25 03:55:24;;;;;;;2.03;1.80;;;11.30;99.90;;;;;;5118647;28;20227;-57
2023/04/25 03:57:52;;;;;;;2.57;1.90;;;11.30;99.90;;;;;;5118591;28;20223;-57
2023/04/25 04:00:19;;;;;;;2.50;2.00;;;11.30;99.90;;;;;;5119020;28;20214;-57
2023/04/25 04:02:46;;;;;;;3.17;1.70;;;11.30;99.90;;;;;;5118555;28;20204;-57
2023/04/25 04:05:13;;;;;;;2.70;1.80;;;11.40;99.90;;;;;;5118210;28;20258;-57
2023/04/25 04:07:42;;;;;;;3.83;1.90;;;11.40;99.90;;;;;;5118210;28;20291;-57
2023/04/25 04:10:10;;;;;;;4.00;1.90;;;11.40;99.90;;;;;;5117755;28;20204;-57
2023/04/25 04:12:37;;;;;;;3.13;2.00;;;11.30;99.90;;;;;;5117055;28;20207;-57
2023/04/25 04:15:06;;;;;;;5.70;2.20;;;11.30;99.90;;;;;;5116220;28;20204;-57
2023/04/25 04:17:33;;;;;;;10.90;6.33;;;11.30;99.90;;;;;;5116237;28;20219;-57
2023/04/25 04:20:01;;;;;;;3.90;2.30;;;11.20;99.90;;;;;;5115646;28;20204;-57
2023/04/25 04:22:27;;;;;;;2.27;1.97;;;11.20;99.90;;;;;;5115398;28;20208;-57
2023/04/25 04:24:54;;;;;;;3.27;2.17;;;11.20;99.90;;;;;;5115191;28;20227;-58
2023/04/25 04:27:22;;;;;;;2.50;1.90;;;11.10;99.90;;;;;;5115939;28;20239;-58
2023/04/25 04:29:50;;;;;;;2.50;2.10;;;11.10;99.90;;;;;;5115703;28;20203;-58
2023/04/25 04:32:18;;;;;;;3.70;2.23;;;11.10;99.90;;;;;;5115405;28;20214;-58
2023/04/25 04:34:47;;;;;;;4.87;2.63;;;11.00;99.90;;;;;;5115691;28;20301;-58
2023/04/25 04:37:14;;;;;;;3.80;2.20;;;11.00;99.90;;;;;;5115790;28;20242;-58
2023/04/25 04:39:41;;;;;;;3.47;2.50;;;11.00;99.90;;;;;;5115292;28;20651;-58
2023/04/25 04:42:08;;;;;;;3.53;2.23;;;11.00;99.90;;;;;;5115371;28;20203;-58
2023/04/25 04:44:35;;;;;;;4.60;2.37;;;11.10;99.90;;;;;;5115000;28;20261;-58
2023/04/25 04:47:03;;;;;;;4.20;2.63;;;11.10;99.90;;;;;;5115302;28;20716;-58
2023/04/25 04:49:31;;;;;;;4.27;2.60;;;11.30;99.90;;;;;;5115632;28;20208;-58
2023/04/25 04:51:59;;;;;;;3.27;2.30;;;11.40;99.90;;;;;;5114998;28;20203;-58
2023/04/25 04:54:26;;;;;;;3.23;2.40;;;11.40;99.90;;;;;;5115090;28;20264;-58
2023/04/25 04:56:53;;;;;;;4.30;2.73;;;11.40;99.90;;;;;;5115366;28;20364;-58
2023/04/25 04:59:21;;;;;;;4.13;2.70;;;11.40;99.90;;;;;;5115260;28;20223;-58
2023/04/25 05:01:48;;;;;;;3.43;3.13;;;11.60;99.90;;;;;;5114041;28;20210;-58
2023/04/25 05:04:14;;;;;;;3.97;2.90;;;11.70;99.90;;;;;;5115183;28;20714;-58
2023/04/25 05:06:44;;;;;;;5.60;2.40;;;11.90;99.90;;;;;;5115204;28;20234;-58
2023/04/25 05:09:11;;;;;;;4.57;2.57;;;11.90;99.90;;;;;;5115000;28;20223;-58
2023/04/25 05:11:37;;;;;;;4.87;3.03;;;12.00;99.90;;;;;;5114963;28;20213;-58
2023/04/25 05:14:04;;;;;;;6.03;2.47;;;12.10;99.90;;;;;;5114527;28;20207;-58
2023/04/25 05:16:32;;;;;;;4.40;2.90;;;12.00;99.90;;;;;;5115037;28;20276;-59
2023/04/25 05:18:58;;;;;;;2.87;2.50;;;12.00;99.90;;;;;;5115064;28;20219;-58
2023/04/25 05:21:27;;;;;;;4.07;2.70;;;12.10;99.90;;;;;;5115149;28;20207;-58
2023/04/25 05:23:55;;;;;;;3.13;2.80;;;12.10;99.90;;;;;;5115166;28;20298;-58
2023/04/25 05:26:22;;;;;;;3.63;2.60;;;12.10;99.90;;;;;;5115352;28;20227;-58
2023/04/25 05:28:50;;;;;;;4.53;2.90;;;12.20;99.90;;;;;;5115610;28;20195;-58
2023/04/25 05:31:17;;;;;;;6.20;3.50;;;12.30;99.90;;;;;;5114781;28;20200;-58
2023/04/25 05:33:44;;;;;;;3.43;2.97;;;12.20;99.90;;;;;;5114020;28;20238;-58
2023/04/25 05:36:11;;;;;;;4.90;2.67;;;12.30;99.90;;;;;;5114128;28;20239;-58
2023/04/25 05:38:38;;;;;;;4.07;2.80;;;12.20;99.90;;;;;;5114708;28;20227;-58
2023/04/25 05:41:07;;;;;;;4.43;2.70;;;12.20;99.90;;;;;;5114584;28;20294;-58
2023/04/25 05:43:33;;;;;;;4.60;2.57;;;12.20;99.90;;;;;;5114725;28;20212;-58
2023/04/25 05:46:00;;;;;;;2.90;2.60;;;12.40;99.90;;;;;;5114954;28;20290;-58
2023/04/25 05:48:27;;;;;;;7.37;3.97;;;12.50;99.90;;;;;;5114860;28;20195;-58
2023/04/25 05:50:54;;;;;;;4.87;3.50;;;12.60;99.90;;;;;;5114652;28;20558;-58
2023/04/25 05:53:22;;;;;;;5.40;2.93;;;12.70;99.90;;;;;;5114023;28;20214;-57
2023/04/25 05:55:49;;;;;;;4.37;3.07;;;12.80;99.90;;;;;;5114299;28;20227;-58
2023/04/25 05:58:17;;;;;;;3.63;2.90;;;13.10;99.90;;;;;;5113974;28;20615;-58
2023/04/25 06:00:45;;;;;;;3.33;2.90;;;13.10;99.90;;;;;;5113775;28;20590;-58
2023/04/25 06:03:14;;;;;;;4.30;3.10;;;13.20;99.90;;;;;;5113654;28;20233;-57
2023/04/25 06:05:41;;;;;;;4.90;2.57;;;13.30;99.90;;;;;;5114191;28;20347;-57
2023/04/25 06:08:08;;;;;;;4.13;3.20;;;13.60;99.90;;;;;;5113712;28;20210;-57
2023/04/25 06:10:35;;;;;;;3.57;2.83;;;14.00;99.90;;;;;;5113678;28;20256;-58
2023/04/25 06:13:02;;;;;;;3.13;2.83;;;14.30;99.90;;;;;;5113312;28;20234;-58
2023/04/25 06:15:32;;;;;;;3.47;2.97;;;14.30;99.90;;;;;;5113691;28;20224;-58
2023/04/25 06:17:59;;;;;;;3.63;3.27;;;14.10;99.90;;;;;;5113476;28;20207;-58
2023/04/25 06:20:26;;;;;;;4.10;3.20;;;14.10;99.90;;;;;;5113502;28;20214;-59
2023/04/25 06:22:53;;;;;;;3.07;2.77;;;13.90;99.90;;;;;;5113280;28;20239;-59
2023/04/25 06:25:20;;;;;;;3.47;2.80;;;13.70;99.90;;;;;;5113669;28;20211;-59
2023/04/25 06:27:47;;;;;;;4.40;3.07;;;13.60;99.90;;;;;;5113379;28;20615;-58
2023/04/25 06:30:15;;;;;;;4.60;3.20;;;13.70;99.90;;;;;;5113320;28;20214;-59
2023/04/25 06:32:43;;;;;;;7.97;6.20;;;13.90;99.90;;;;;;5113633;28;20210;-58
2023/04/25 06:35:10;;;;;;;5.30;4.30;;;14.40;99.90;;;;;;5113502;28;20671;-58
2023/04/25 06:37:37;;;;;;;3.03;2.70;;;15.00;99.90;;;;;;5113932;28;20637;-59
2023/04/25 06:40:04;;;;;;;2.88;2.65;;;16.50;99.90;;;;;;5113695;28;20243;-59
2023/04/25 06:42:31;;;;;;;2.20;2.00;;;17.50;99.90;;;;;;5113560;28;20295;-58
2023/04/25 06:44:58;;;;;;;2.72;2.03;;;18.10;99.40;;;;;;5114052;28;20212;-58
2023/04/25 06:47:25;;;;;;;2.53;2.25;;;17.80;99.10;;;;;;5114231;28;20294;-58
2023/04/25 06:49:53;;;;;;;2.97;2.33;;;17.70;99.70;;;;;;5113917;28;20268;-59
2023/04/25 06:52:20;;;;;;;4.72;2.75;;;18.30;98.60;;;;;;5113478;28;20295;-59
2023/04/25 06:54:47;;;;;;;3.53;1.88;;;19.10;97.60;;;;;;5113665;28;20211;-59
2023/04/25 06:57:14;;;;;;;3.15;1.90;;;20.60;95.40;;;;;;5118254;28;20223;-63
2023/04/25 06:59:41;;;;;;;3.05;2.35;;;21.50;92.60;;;;;;5119207;28;20227;-63
2023/04/25 07:02:08;;;;;;;2.83;2.25;;;21.10;92.40;;;;;;5120254;28;20215;-63
2023/04/25 07:04:35;;;;;;;2.67;2.33;;;20.80;92.70;;;;;;5118278;28;20246;-63
2023/04/25 07:07:03;;;;;;;2.35;2.15;;;20.20;92.70;;;;;;5117030;28;20247;-63
2023/04/25 07:09:33;;;;;;;3.45;2.22;;;20.50;93.50;;;;;;5116438;28;20249;-64
2023/04/25 07:12:01;;;;;;;2.47;2.28;;;21.50;91.00;;;;;;5116573;28;20267;-63
2023/04/25 07:14:27;;;;;;;3.28;2.30;;;21.00;91.10;;;;;;5115957;28;20210;-62
2023/04/25 07:16:55;;;;;;;3.47;2.92;;;19.70;92.50;;;;;;5115263;28;20219;-63
2023/04/25 07:19:23;;;;;;;3.08;2.70;;;18.50;94.30;;;;;;5116061;28;20227;-61
2023/04/25 07:21:50;;;;;;;3.70;2.75;;;17.90;94.70;;;;;;5116054;28;20617;-61
2023/04/25 07:24:18;;;;;;;3.28;2.53;;;17.30;95.70;;;;;;5114470;28;20650;-60
2023/04/25 07:26:45;;;;;;;3.30;3.00;;;16.90;96.20;;;;;;5117997;28;20231;-58
2023/04/25 07:29:12;;;;;;;2.85;2.65;;;16.50;97.30;;;;;;5117581;28;20227;-63
2023/04/25 07:31:39;;;;;;;2.90;2.70;;;16.40;97.20;;;;;;5117586;28;20280;-61
2023/04/25 07:34:06;;;;;;;3.00;2.80;;;16.40;97.40;;;;;;5116650;28;20299;-59
2023/04/25 07:36:33;;;;;;;4.63;2.70;;;16.00;97.70;;;;;;5136805;22;20243;-62
2023/04/25 07:38:59;;;;;;;3.00;2.70;;;15.50;98.80;;;;;;5127394;27;20632;-62
2023/04/25 07:41:27;;;;;;;2.97;2.67;;;15.00;99.30;;;;;;5136135;27;20203;-62
2023/04/25 07:43:54;;;;;;;5.80;2.90;;;14.50;99.90;;;;;;5135604;27;20213;-62
2023/04/25 07:46:21;;;;;;;3.00;2.70;;;14.20;99.90;;;;;;5135836;27;20226;-62
2023/04/25 07:48:47;;;;;;;3.20;2.87;;;13.80;99.90;;;;;;5135924;27;20199;-62
2023/04/25 07:51:14;;;;;;;3.43;3.07;;;13.50;99.90;;;;;;5135695;27;20210;-62
2023/04/25 07:53:41;;;;;;;3.43;2.97;;;13.50;99.90;;;;;;5135722;27;20202;-62
2023/04/25 07:56:09;;;;;;;3.87;2.90;;;13.70;99.90;;;;;;5135587;27;20774;-62
2023/04/25 07:58:37;;;;;;;4.13;2.73;;;13.70;99.90;;;;;;5135532;27;20681;-62
2023/04/25 08:01:04;;;;;;;2.87;2.57;;;13.50;99.90;;;;;;5135646;27;20625;-62
2023/04/25 08:03:30;;;;;;;4.90;2.87;;;13.40;99.90;;;;;;5135512;27;20202;-62
2023/04/25 08:05:57;;;;;;;4.03;3.40;;;13.60;99.90;;;;;;5135300;27;20226;-62
2023/04/25 08:08:24;;;;;;;3.20;2.90;;;13.20;99.90;;;;;;5135723;27;20209;-62
2023/04/25 08:10:51;;;;;;;3.47;2.77;;;13.10;99.90;;;;;;5135704;27;20206;-62
2023/04/25 08:13:18;;;;;;;5.20;2.67;;;13.00;99.90;;;;;;5135313;27;20203;-62
2023/04/25 08:15:46;;;;;;;3.50;3.20;;;12.90;99.90;;;;;;5135244;27;20227;-62
2023/04/25 08:18:12;;;;;;;3.77;2.90;;;12.90;99.90;;;;;;5135485;27;20203;-63
2023/04/25 08:20:40;;;;;;;9.60;3.47;;;12.90;99.90;;;;;;5135064;27;20235;-62
2023/04/25 08:23:07;;;;;;;4.47;3.50;;;12.90;99.90;;;;;;5135048;27;20221;-62
2023/04/25 08:25:34;;;;;;;4.67;3.57;;;13.00;99.90;;;;;;5135123;27;20223;-62
2023/04/25 08:28:02;;;;;;;3.90;3.50;;;12.80;99.90;;;;;;5135036;27;20213;-62
2023/04/25 08:30:29;;;;;;;4.30;3.90;;;12.50;99.90;;;;;;5135000;27;20576;-63
2023/04/25 08:32:57;;;;;;;4.40;3.50;;;12.00;99.90;;;;;;5134616;27;20573;-63
2023/04/25 08:35:24;;;;;;;3.87;3.30;;;11.50;99.90;;;;;;5134289;27;20207;-63
2023/04/25 08:37:51;;;;;;;3.60;3.10;;;11.30;99.90;;;;;;5134999;27;20635;-63
2023/04/25 08:40:17;;;;;;;3.37;3.07;;;11.10;99.90;;;;;;5135051;27;20597;-63
2023/04/25 08:42:44;;;;;;;3.87;3.47;;;11.00;99.90;;;;;;5134705;27;20202;-63
2023/04/25 08:45:11;;;;;;;4.47;4.00;;;10.90;99.90;;;;;;5134935;27;20202;-63
2023/04/25 08:47:41;;;;;;;4.33;3.93;;;11.10;99.90;;;;;;5134813;27;20203;-63
2023/04/25 08:50:09;;;;;;;5.20;4.37;;;11.30;99.90;;;;;;5134851;27;20293;-63
2023/04/25 08:52:44;;;;;;;6.07;4.40;;;11.50;99.90;;;;;;5134413;27;20230;-63
2023/04/25 08:55:13;;;;;;;8.10;4.20;;;11.80;99.90;;;;;;5134719;27;20584;-63
2023/04/25 08:57:42;;;;;;;4.90;4.13;;;12.20;99.90;;;;;;5134537;27;20211;-64
2023/04/25 09:00:11;;;;;;;4.35;3.95;;;12.60;99.90;;;;;;5133803;27;20480;-61
2023/04/25 09:02:39;;;;;;;5.40;3.80;;;12.80;99.90;;;;;;5108870;28;20208;-64
2023/04/25 09:05:09;;;;;;;4.40;4.00;;;13.10;99.90;;;;;;5112537;28;20214;-65
2023/04/25 09:07:37;;;;;;;4.40;3.27;;;13.30;99.90;;;;;;5112474;28;20208;-62
2023/04/25 09:10:04;;;;;;;4.03;3.40;;;13.60;99.90;;;;;;5112617;28;20199;-63
2023/04/25 09:12:32;;;;;;;4.27;3.87;;;13.60;99.90;;;;;;5111820;28;20264;-63
2023/04/25 09:15:07;;;;;;;5.60;3.70;;;13.80;99.90;;;;;;5112435;28;20298;-63
2023/04/25 09:17:33;;;;;;;3.80;3.50;;;14.00;99.90;;;;;;5112134;28;20678;-66
2023/04/25 09:20:08;;;;;;;5.30;3.73;;;14.10;99.90;;;;;;5112811;27;20643;-62
2023/04/25 09:22:37;;;;;;;4.27;3.43;;;14.20;99.90;;;;;;5112366;28;20224;-65
2023/04/25 09:25:08;;;;;;;6.27;4.00;;;14.40;99.90;;;;;;5112512;28;20239;-63
2023/04/25 09:27:35;;;;;;;4.60;4.10;;;14.60;99.90;;;;;;5112638;28;20349;-62
2023/04/25 09:30:03;;;;;;;4.97;4.00;;;14.90;99.90;;;;;;5112691;28;20707;-64
2023/04/25 09:32:29;;;;;;;4.90;4.07;;;15.20;99.90;;;;;;5112736;28;20206;-62
2023/04/25 09:34:57;;;;;;;4.20;3.80;;;15.30;99.90;;;;;;5112323;28;20623;-63
2023/04/25 09:37:25;;;;;;;4.87;4.47;;;15.60;99.90;;;;;;5111467;28;20321;-64
2023/04/25 09:39:55;;;;;;;5.10;4.57;;;15.80;99.90;;;;;;5112643;28;20231;-63
2023/04/25 09:42:24;;;;;;;6.33;4.20;;;15.80;99.90;;;;;;5112070;28;20674;-66
2023/04/25 09:44:53;;;;;;;6.47;3.67;;;15.80;99.90;;;;;;5111714;28;20286;-63
2023/04/25 09:47:22;;;;;;;4.83;3.73;;;15.80;99.90;;;;;;5111222;28;20227;-64
2023/04/25 09:49:49;;;;;;;7.63;4.00;;;15.90;99.90;;;;;;5111422;28;20199;-65
2023/04/25 09:52:17;;;;;;;4.87;4.40;;;15.90;99.90;;;;;;5111072;28;20203;-63
2023/04/25 09:54:45;;;;;;;4.73;3.60;;;16.00;99.90;;;;;;5111986;27;20203;-64
2023/04/25 09:57:15;;;;;;;4.93;4.43;;;16.00;99.90;;;;;;5111525;28;20238;-64
2023/04/25 09:59:45;;;;;;;5.85;4.07;;;16.00;99.90;;;;;;5111432;28;20223;-63
2023/04/25 10:02:13;;;;;;;5.57;4.70;;;15.70;99.90;;;;;;5111460;27;20207;-63
2023/04/25 10:04:42;;;;;;;7.07;5.00;;;15.70;99.90;;;;;;5111226;28;20599;-63
2023/04/25 10:07:09;;;;;;;5.67;4.30;;;15.70;99.90;;;;;;5111032;28;20775;-62
2023/04/25 10:09:40;;;;;;;5.37;4.33;;;15.60;99.90;;;;;;5111765;28;20286;-63
2023/04/25 10:12:08;;;;;;;5.77;4.43;;;15.40;99.90;;;;;;5111361;28;20252;-63
2023/04/25 10:14:36;;;;;;;4.87;3.40;;;15.30;99.90;;;;;;5110910;28;20248;-64
2023/04/25 10:17:03;;;;;;;4.63;3.63;;;15.30;99.90;;;;;;5111076;28;20310;-62
2023/04/25 10:19:30;;;;;;;4.80;3.20;;;15.20;99.90;;;;;;5111238;28;20950;-63
2023/04/25 10:22:04;;;;;;;3.53;3.17;;;15.00;99.90;;;;;;5111108;28;20365;-62
2023/04/25 10:24:31;;;;;;;4.07;2.67;;;14.80;99.90;;;;;;5111314;28;20640;-63
2023/04/25 10:26:58;;;;;;;4.53;2.50;;;14.70;99.90;;;;;;5110921;28;20233;-63
2023/04/25 10:29:26;;;;;;;3.90;2.40;;;14.80;99.90;;;;;;5111434;28;20203;-63
2023/04/25 10:31:54;;;;;;;3.63;2.50;;;14.80;99.90;;;;;;5110845;28;20211;-63
2023/04/25 10:34:26;;;;;;;7.53;4.40;;;14.90;99.90;;;;;;5111415;28;20210;-65
2023/04/25 10:36:53;;;;;;;5.00;3.00;;;15.10;99.90;;;;;;5110691;28;20263;-63
2023/04/25 10:39:24;;;;;;;4.47;3.20;;;15.00;99.90;;;;;;5111214;28;20211;-64
2023/04/25 10:41:55;;;;;;;3.07;2.77;;;14.80;99.90;;;;;;5111183;28;20204;-63
2023/04/25 10:44:22;;;;;;;4.33;2.73;;;14.30;99.90;;;;;;5110374;28;20211;-63
2023/04/25 10:46:49;;;;;;;4.17;3.20;;;13.50;99.90;;;;;;5111146;28;20633;-63
2023/04/25 10:49:34;;;;;;;7.70;5.70;;;12.50;99.90;;;;;;5110995;28;20286;-64
2023/04/25 10:52:17;;;;;;;5.43;4.07;;;11.60;99.90;;;;;;5110970;28;20199;-63
2023/04/25 10:54:48;;;;;;;6.03;3.50;;;10.90;99.90;;;;;;5110702;28;20210;-63
2023/04/25 10:57:37;;;;;;;6.20;5.60;;;10.70;99.90;;;;;;5111015;28;20230;-64
2023/04/25 11:00:10;;;;;;;5.17;4.00;;;10.40;99.90;;;;;;5114153;28;20223;-63
2023/04/25 11:02:46;;;;;;;5.60;4.07;;;10.20;99.90;;;;;;5115301;28;20589;-63
2023/04/25 11:05:22;;;;;;;8.73;5.47;;;10.30;99.90;;;;;;5114804;28;20747;-63
2023/04/25 11:07:52;;;;;;;7.27;4.90;;;10.50;99.90;;;;;;5114463;28;20203;-63
2023/04/25 11:10:19;;;;;;;8.73;5.50;;;10.60;99.90;;;;;;5115160;28;20261;-63
2023/04/25 11:12:46;;;;;;;6.37;5.33;;;10.80;99.90;;;;;;5114706;28;20204;-63
2023/04/25 11:15:13;;;;;;;7.27;5.27;;;10.90;99.90;;;;;;5114042;28;20294;-62
2023/04/25 11:17:41;;;;;;;6.43;5.10;;;11.10;99.90;;;;;;5114481;28;20204;-62
2023/04/25 11:20:11;;;;;;;6.03;5.20;;;11.20;99.90;;;;;;5114962;28;20261;-62
2023/04/25 11:22:41;;;;;;;5.53;4.80;;;11.40;99.90;;;;;;5114591;28;20203;-63
2023/04/25 11:25:09;;;;;;;7.00;5.37;;;11.60;99.90;;;;;;5114278;28;20245;-66
2023/04/25 11:27:38;;;;;;;5.50;4.47;;;11.70;99.90;;;;;;5114668;28;20227;-66
2023/04/25 11:30:14;;;;;;;5.70;5.00;;;11.70;99.90;;;;;;5113987;28;20203;-63
2023/04/25 11:32:42;;;;;;;5.80;4.60;;;11.70;99.90;;;;;;5112198;28;20211;-65
2023/04/25 11:35:09;;;;;;;5.40;4.20;;;11.80;99.90;;;;;;5115216;28;20644;-64
2023/04/25 11:37:36;;;;;;;5.33;3.50;;;11.90;99.90;;;;;;5113801;28;20744;-63
2023/04/25 11:40:08;;;;;;;5.53;3.90;;;12.10;99.90;;;;;;5114585;28;20228;-65
2023/04/25 11:42:34;;;;;;;4.03;3.63;;;12.40;99.90;;;;;;5114607;28;20210;-64
2023/04/25 11:45:01;;;;;;;4.80;3.10;;;12.80;99.90;;;;;;5114874;28;20211;-64
2023/04/25 11:47:31;;;;;;;3.63;3.10;;;13.20;99.90;;;;;;5113396;28;20234;-65
2023/04/25 11:49:59;;;;;;;3.40;3.10;;;13.50;99.90;;;;;;5114011;28;20207;-62
2023/04/25 11:52:25;;;;;;;2.97;2.67;;;13.80;99.90;;;;;;5114070;28;20207;-62
2023/04/25 11:54:52;;;;;;;3.43;3.00;;;14.20;99.90;;;;;;5113711;28;20203;-61
2023/04/25 11:57:21;;;;;;;5.13;3.30;;;14.70;99.90;;;;;;5113165;28;20235;-61
2023/04/25 11:59:48;;;;;;;4.67;3.10;;;15.10;99.90;;;;;;5113139;28;20208;-63
2023/04/25 12:02:26;;;;;;;7.27;3.90;;;15.60;99.90;;;;;;5113516;28;20230;-62
2023/04/25 12:04:53;;;;;;;4.53;3.40;;;15.90;99.90;;;;;;5113834;28;20612;-62
2023/04/25 12:07:22;;;;;;;2.17;1.70;;;16.30;99.90;;;;;;5113016;28;20235;-63
2023/04/25 12:09:53;;;;;;;3.03;2.17;;;16.60;99.90;;;;;;5113373;28;20587;-62
2023/04/25 12:12:21;;;;;;;2.85;1.90;;;16.70;99.90;;;;;;5113364;28;20738;-61
2023/04/25 12:14:48;;;;;;;4.27;2.20;;;16.70;99.90;;;;;;5113050;28;20561;-63
2023/04/25 12:17:15;;;;;;;4.00;2.23;;;16.70;99.90;;;;;;5113524;28;20242;-62
2023/04/25 12:19:44;;;;;;;3.63;2.00;;;16.70;99.90;;;;;;5113574;28;20199;-64
2023/04/25 12:22:21;;;;;;;3.30;2.22;;;16.80;99.90;;;;;;5112934;28;20234;-63
2023/04/25 12:24:48;;;;;;;2.22;2.00;;;16.90;99.90;;;;;;5113198;28;20290;-64
2023/04/25 12:27:18;;;;;;;3.10;2.60;;;17.00;99.90;;;;;;5112990;28;20296;-63
2023/04/25 12:29:53;;;;;;;2.83;2.10;;;16.80;99.90;;;;;;5113236;28;20340;-62
2023/04/25 12:32:20;;;;;;;2.08;1.88;;;16.70;99.90;;;;;;5113365;28;20214;-65
2023/04/25 12:34:47;;;;;;;2.33;2.03;;;16.60;99.90;;;;;;5113145;28;20298;-62
2023/04/25 12:37:14;;;;;;;3.17;2.70;;;16.40;99.90;;;;;;5112271;28;20235;-63
2023/04/25 12:39:40;;;;;;;3.40;1.97;;;16.30;99.90;;;;;;5113014;28;20207;-63
2023/04/25 12:42:11;;;;;;;3.57;2.47;;;16.50;99.90;;;;;;5113060;28;20241;-64
2023/04/25 12:44:38;;;;;;;2.60;2.40;;;16.80;99.90;;;;;;5111838;28;20214;-64
2023/04/25 12:47:06;;;;;;;2.92;2.60;;;17.10;99.90;;;;;;5112470;28;20231;-63
2023/04/25 12:49:33;;;;;;;3.60;2.55;;;17.10;99.90;;;;;;5112920;28;20204;-65
2023/04/25 12:52:00;;;;;;;5.67;2.60;;;16.80;99.90;;;;;;5111891;28;20206;-64